Gillette, WY (82716)

12:43 AM MST on December 09, 2016 (GMT -0700)
McCann Heights, central Gillette | | Change Station

Elev 4590 ft 44.28 °N, 105.50 °W | Updated 31 seconds ago

Scattered Clouds
Scattered Clouds
-0.6 °F
Feels Like -1 °F
N
0.0
Wind Variable Wind from ESE

Today
High -- | Low -- °F
--% Chance of Precip.
Yesterday
High -- | Low -- °F
Precip. -- in
Pressure 30.43 in
Visibility 10.0 miles
Clouds Scattered Clouds 11000 ft
Windchill -1 °F
Dew Point -5 °F
Humidity 80%
Rainfall 0.00 in
Snow Depth Not available.
7:26 AM 4:22 PM
Waxing Gibbous, 71% visible
METAR KGCC 090653Z AUTO 05005KT 10SM SCT110 M18/M22 A3016 RMK AO2 SLP303 T11831217 411331283 $
Pressure 30.43 in
Visibility 10.0 miles
Clouds Scattered Clouds 11000 ft
Windchill -1 °F
Dew Point -5 °F
Humidity 80%
Rainfall 0.00 in
Snow Depth Not available.
7:26 AM 4:22 PM
Waxing Gibbous, 71% visible
METAR KGCC 090653Z AUTO 05005KT 10SM SCT110 M18/M22 A3016 RMK AO2 SLP303 T11831217 411331283 $

10-Day Weather Forecast

Almanac

Astronomy

Dec. 09, 2016 Rise Set
Actual Time
Civil Twilight
Nautical Twilight
Astronomical Twilight
Moon
Length of Visible Light
Length of Day
Tomorrow will be .
, % of the Moon is Illuminated

Today's Extremes

State Highs State Lows

Community

WunderPhotos

Upload Photos

1,956,374 photos uploaded!

WunderBlog® & News

Nearby

Air Quality

  Air Quality AQ Index Pollutant
Not available.

Snow Depth

Station Depth Elevation

Earthquake Activity

City Distance Mag. Time & Date
Minimum magnitude displayed is 2.5.

Coastal Water Temperatures

Place Temperature

Stations

Nearby Weather Stations

Station Location Temp. Windchill Dew Point Humidity Wind Precip. Elev Updated Type
                   

Watches & Warnings

There are currently no watches in effect.